Terminal Aerodrome Forecast
Issued by NWS Cleveland, OH

Home | Current Version | Previous Version | Graphics & Text | Print | Product List | Glossary On
Versions: 1 2 3 4 5 6 7 8 9 10 11 12
000
FTUS41 KCLE 180500
TAFMFD
TAF
KMFD 180520Z 1806/1906 17005KT P6SM SCT150 OVC250
     FM181300 25008KT P6SM VCSH SCT040 OVC100
     FM182100 31010KT P6SM SCT100 BKN200=

USA.gov is the U.S. government's official web portal to all federal, state and local government web resources and services.